createdAt,value
2023-02-11T00:01:31.341Z,6.40
2023-02-11T00:04:01.008Z,6.50
2023-02-11T00:06:32.082Z,6.50
2023-02-11T00:09:01.159Z,6.50
2023-02-11T00:11:31.889Z,6.50
2023-02-11T00:14:05.314Z,6.50
2023-02-11T00:16:33.745Z,6.50
2023-02-11T00:19:03.372Z,6.50
2023-02-11T00:21:31.753Z,6.50
2023-02-11T00:24:02.198Z,6.50
2023-02-11T00:26:33.902Z,6.50
2023-02-11T00:29:05.103Z,6.50
2023-02-11T00:31:34.358Z,6.50
2023-02-11T00:34:02.966Z,6.50
2023-02-11T00:36:32.035Z,6.50
2023-02-11T00:39:01.565Z,6.50
2023-02-11T00:41:30.114Z,6.50
2023-02-11T00:44:00.752Z,6.50
2023-02-11T00:46:30.884Z,6.50
2023-02-11T00:48:59.227Z,6.50
2023-02-11T00:51:28.563Z,6.50
2023-02-11T00:53:57.470Z,6.50
2023-02-11T00:56:25.717Z,6.50
2023-02-11T00:58:54.030Z,6.50
2023-02-11T01:01:22.279Z,6.50
2023-02-11T01:03:52.225Z,6.50
2023-02-11T01:06:21.076Z,6.50
2023-02-11T01:08:49.176Z,6.50
2023-02-11T01:11:21.308Z,6.50
2023-02-11T01:13:50.819Z,6.50
2023-02-11T01:16:20.832Z,6.50
2023-02-11T01:18:49.068Z,6.50
2023-02-11T01:21:20.500Z,6.50
2023-02-11T01:23:48.869Z,6.50
2023-02-11T01:26:17.134Z,6.50
2023-02-11T01:28:45.562Z,6.50
2023-02-11T01:31:13.836Z,6.50
2023-02-11T01:33:42.135Z,6.50
2023-02-11T01:36:13.092Z,6.50
2023-02-11T01:38:44.327Z,6.50
2023-02-11T01:41:15.515Z,6.50
2023-02-11T01:43:47.219Z,6.50
2023-02-11T01:46:35.214Z,6.50
2023-02-11T01:49:10.551Z,6.50
2023-02-11T01:51:44.683Z,6.50
2023-02-11T01:54:37.096Z,6.50
2023-02-11T01:57:24.661Z,6.50
2023-02-11T02:00:14.946Z,6.50
2023-02-11T02:02:53.692Z,6.50
2023-02-11T02:05:32.197Z,6.50
2023-02-11T02:08:11.796Z,6.50
2023-02-11T02:10:46.926Z,6.50
2023-02-11T02:13:18.188Z,6.50
2023-02-11T02:15:52.861Z,6.50
2023-02-11T02:18:40.769Z,6.50
2023-02-11T02:21:53.559Z,6.50
2023-02-11T02:24:50.030Z,6.50
2023-02-11T02:27:38.505Z,6.50
2023-02-11T02:30:51.733Z,6.40
2023-02-11T02:33:39.376Z,6.40
2023-02-11T02:36:16.813Z,6.40
2023-02-11T02:38:54.920Z,6.40
2023-02-11T02:41:29.394Z,6.40
2023-02-11T02:43:58.124Z,6.40
2023-02-11T02:46:29.426Z,6.40
2023-02-11T02:49:00.043Z,6.40
2023-02-11T02:52:01.565Z,6.40
2023-02-11T02:55:17.565Z,6.40
2023-02-11T02:58:11.052Z,6.40
2023-02-11T03:00:49.880Z,6.40
2023-02-11T03:03:32.479Z,6.40
2023-02-11T03:06:08.890Z,6.40
2023-02-11T03:08:44.750Z,6.40
2023-02-11T03:11:18.121Z,6.40
2023-02-11T03:13:49.469Z,6.40
2023-02-11T03:16:23.785Z,6.40
2023-02-11T03:18:59.904Z,6.40
2023-02-11T03:21:33.964Z,6.40
2023-02-11T03:24:08.324Z,6.40
2023-02-11T03:26:41.342Z,6.40
2023-02-11T03:29:19.172Z,6.40
2023-02-11T03:32:00.480Z,6.40
2023-02-11T03:34:37.296Z,6.40
2023-02-11T03:37:14.036Z,6.40
2023-02-11T03:39:51.231Z,6.40
2023-02-11T03:42:20.792Z,6.40
2023-02-11T03:44:55.803Z,6.40
2023-02-11T03:47:29.662Z,6.40
2023-02-11T03:50:02.040Z,6.40
2023-02-11T03:52:33.480Z,6.40
2023-02-11T03:55:06.991Z,6.40
2023-02-11T03:57:35.223Z,6.40
2023-02-11T04:00:03.533Z,6.40
2023-02-11T04:02:41.664Z,6.40
2023-02-11T04:05:13.373Z,6.40
2023-02-11T04:07:42.801Z,6.40
2023-02-11T04:10:13.369Z,6.40
2023-02-11T04:12:41.543Z,6.40
2023-02-11T04:15:10.424Z,6.40
2023-02-11T04:17:39.284Z,6.40
2023-02-11T04:20:08.613Z,6.40
2023-02-11T04:22:36.980Z,6.40
2023-02-11T04:25:07.928Z,6.40
2023-02-11T04:27:36.503Z,6.40
2023-02-11T04:30:05.675Z,6.40
2023-02-11T04:32:33.759Z,6.40
2023-02-11T04:35:02.822Z,6.40
2023-02-11T04:37:31.179Z,6.40
2023-02-11T04:39:59.221Z,6.40
2023-02-11T04:42:28.966Z,6.40
2023-02-11T04:44:57.147Z,6.40
2023-02-11T04:47:25.370Z,6.40
2023-02-11T04:49:53.420Z,6.40
2023-02-11T04:52:21.445Z,6.40
2023-02-11T07:06:33.020Z,6.20
2023-02-11T07:09:01.221Z,6.20
2023-02-11T07:11:31.733Z,6.20
2023-02-11T07:14:04.563Z,6.20
2023-02-11T07:16:34.290Z,6.20
2023-02-11T07:19:02.638Z,6.20
2023-02-11T07:21:30.977Z,6.20
2023-02-11T07:24:00.482Z,6.20
2023-02-11T07:26:28.932Z,6.20
2023-02-11T07:28:57.090Z,6.20
2023-02-11T07:31:27.915Z,6.20
2023-02-11T07:33:59.827Z,6.20
2023-02-11T07:36:31.679Z,6.20
2023-02-11T07:39:01.602Z,6.20
2023-02-11T07:41:29.744Z,6.30
2023-02-11T07:43:57.783Z,6.30
2023-02-11T07:46:28.846Z,6.30
2023-02-11T07:48:57.245Z,6.30
2023-02-11T07:51:28.239Z,6.30
2023-02-11T07:53:59.037Z,6.30
2023-02-11T07:56:29.697Z,6.30
2023-02-11T07:59:01.766Z,6.30
2023-02-11T08:01:31.270Z,6.30
2023-02-11T08:04:01.802Z,6.30
2023-02-11T08:06:32.891Z,6.30
2023-02-11T08:09:06.052Z,6.30
2023-02-11T08:11:36.094Z,6.30
2023-02-11T08:14:04.241Z,6.30
2023-02-11T08:16:35.463Z,6.30
2023-02-11T08:19:06.789Z,6.30
2023-02-11T08:21:43.075Z,6.30
2023-02-11T08:24:11.782Z,6.30
2023-02-11T08:26:41.576Z,6.30
2023-02-11T08:29:13.442Z,6.40
2023-02-11T08:31:44.898Z,6.30
2023-02-11T08:34:20.113Z,6.30
2023-02-11T08:36:49.881Z,6.40
2023-02-11T08:39:20.978Z,6.40
2023-02-11T08:41:53.700Z,6.40
2023-02-11T08:44:24.310Z,6.40
2023-02-11T08:46:52.948Z,6.40
2023-02-11T08:49:22.120Z,6.40
2023-02-11T08:51:52.037Z,6.40
2023-02-11T08:54:20.417Z,6.40
2023-02-11T08:56:53.870Z,6.40
2023-02-11T08:59:22.229Z,6.50
2023-02-11T09:01:50.978Z,6.50
2023-02-11T09:04:19.444Z,6.50
2023-02-11T09:06:47.665Z,6.50
2023-02-11T09:09:17.283Z,6.50
2023-02-11T09:11:46.801Z,6.50
2023-02-11T09:14:23.183Z,6.50
2023-02-11T09:16:53.101Z,6.60
2023-02-11T09:19:22.938Z,6.60
2023-02-11T09:21:51.316Z,6.60
2023-02-11T09:24:19.573Z,6.60
2023-02-11T09:26:47.740Z,6.60
2023-02-11T09:29:15.788Z,6.60
2023-02-11T09:31:45.378Z,6.70
2023-02-11T09:34:15.349Z,6.70
2023-02-11T09:36:43.822Z,6.70
2023-02-11T09:39:18.133Z,6.70
2023-02-11T09:42:11.551Z,6.70
2023-02-11T09:44:40.738Z,6.70
2023-02-11T09:47:29.282Z,6.70
2023-02-11T09:50:04.209Z,6.80
2023-02-11T09:52:42.729Z,6.80
2023-02-11T09:55:21.899Z,6.80
2023-02-11T09:57:50.501Z,6.80
2023-02-11T10:00:25.261Z,6.80
2023-02-11T10:03:46.465Z,6.80
2023-02-11T10:06:40.918Z,6.80
2023-02-11T10:09:52.756Z,6.90
2023-02-11T10:12:43.088Z,6.80
2023-02-11T10:15:27.299Z,6.90
2023-02-11T10:18:17.937Z,6.90
2023-02-11T10:21:06.769Z,6.90
2023-02-11T10:23:43.104Z,6.90
2023-02-11T10:26:15.964Z,6.90
2023-02-11T10:28:48.387Z,6.90
2023-02-11T10:31:22.340Z,6.90
2023-02-11T10:34:00.136Z,6.90
2023-02-11T10:36:33.907Z,7.00
2023-02-11T10:39:13.973Z,7.00
2023-02-11T10:41:48.038Z,7.00
2023-02-11T10:44:26.637Z,7.00
2023-02-11T10:46:57.288Z,7.10
2023-02-11T10:49:39.161Z,7.10
2023-02-11T10:52:23.962Z,7.10
2023-02-11T10:55:07.025Z,7.10
2023-02-11T10:57:39.758Z,7.10
2023-02-11T11:00:27.786Z,7.10
2023-02-11T11:02:59.899Z,7.20
2023-02-11T11:05:33.670Z,7.20
2023-02-11T11:08:06.559Z,7.20
2023-02-11T11:10:44.079Z,7.20
2023-02-11T11:13:28.505Z,7.20
2023-02-11T11:16:26.195Z,7.30
2023-02-11T11:19:17.156Z,7.20
2023-02-11T11:21:49.264Z,7.30
2023-02-11T11:24:22.047Z,7.30
2023-02-11T11:26:53.348Z,7.30
2023-02-11T11:29:31.585Z,7.30
2023-02-11T11:32:04.607Z,7.30
2023-02-11T11:34:37.061Z,7.40
2023-02-11T11:37:20.315Z,7.30
2023-02-11T11:39:58.160Z,7.40
2023-02-11T11:42:29.807Z,7.40
2023-02-11T11:45:01.053Z,7.40
2023-02-11T11:47:40.550Z,7.40
2023-02-11T11:50:30.145Z,7.40
2023-02-11T11:53:05.879Z,7.50
2023-02-11T11:55:42.207Z,7.50
2023-02-11T11:58:17.461Z,7.50
2023-02-11T12:00:59.966Z,7.60
2023-02-11T12:04:11.701Z,7.50
2023-02-11T12:06:51.009Z,7.60
2023-02-11T12:09:36.181Z,7.60
2023-02-11T12:12:36.493Z,7.60
2023-02-11T12:15:23.721Z,7.60
2023-02-11T12:18:24.477Z,7.60
2023-02-11T12:21:32.809Z,7.60
2023-02-11T12:24:29.415Z,7.70
2023-02-11T12:27:07.696Z,7.70
2023-02-11T12:29:56.498Z,7.70
2023-02-11T12:32:36.378Z,7.70
2023-02-11T12:35:26.209Z,7.70
2023-02-11T12:38:22.641Z,7.80
2023-02-11T12:41:10.654Z,7.70
2023-02-11T12:43:41.692Z,7.80
2023-02-11T12:46:39.160Z,7.80
2023-02-11T12:49:39.560Z,7.80
2023-02-11T12:52:30.720Z,7.90
2023-02-11T12:55:05.877Z,7.90
2023-02-11T12:57:39.019Z,7.90
2023-02-11T13:00:16.230Z,7.90
2023-02-11T13:02:55.985Z,8.00
2023-02-11T13:05:31.134Z,8.00
2023-02-11T13:08:08.925Z,8.00
2023-02-11T13:10:42.056Z,8.00
2023-02-11T13:13:21.531Z,8.00
2023-02-11T13:15:55.137Z,8.10
2023-02-11T13:18:44.027Z,8.10
2023-02-11T13:21:39.506Z,8.10
2023-02-11T13:24:23.569Z,8.10
2023-02-11T13:27:05.491Z,8.20
2023-02-11T13:30:14.438Z,8.20
2023-02-11T13:33:18.959Z,8.20
2023-02-11T13:36:11.168Z,8.20
2023-02-11T13:38:40.093Z,8.30
2023-02-11T13:41:20.947Z,8.30
2023-02-11T13:44:01.285Z,8.30
2023-02-11T13:46:54.260Z,8.30
2023-02-11T13:49:27.036Z,8.40
2023-02-11T13:51:56.976Z,8.40
2023-02-11T13:54:35.249Z,8.40
2023-02-11T13:57:41.071Z,8.40
2023-02-11T14:00:52.474Z,8.40
2023-02-11T14:03:55.515Z,8.40
2023-02-11T14:06:47.436Z,8.40
2023-02-11T14:09:38.565Z,8.40
2023-02-11T14:12:32.531Z,8.40
2023-02-11T14:15:28.452Z,8.50
2023-02-11T14:17:56.699Z,8.50
2023-02-11T14:20:41.918Z,8.50
2023-02-11T14:23:27.264Z,8.50
2023-02-11T14:26:11.633Z,8.50
2023-02-11T14:28:44.779Z,8.50
2023-02-11T14:31:19.653Z,8.50
2023-02-11T14:34:15.547Z,8.50
2023-02-11T14:37:11.610Z,8.50
2023-02-11T14:39:57.911Z,8.60
2023-02-11T14:42:30.882Z,8.50
2023-02-11T14:45:05.625Z,8.60
2023-02-11T14:47:44.153Z,8.60
2023-02-11T14:50:21.434Z,8.60
2023-02-11T14:52:51.595Z,8.60
2023-02-11T14:55:33.025Z,8.60
2023-02-11T14:58:17.173Z,8.60
2023-02-11T15:00:53.660Z,8.60
2023-02-11T15:03:31.890Z,8.60
2023-02-11T15:06:03.719Z,8.60
2023-02-11T15:08:36.196Z,8.60
2023-02-11T15:11:12.524Z,8.60
2023-02-11T15:13:47.240Z,8.70
2023-02-11T15:16:20.662Z,8.70
2023-02-11T15:18:55.319Z,8.70
2023-02-11T15:21:27.383Z,8.70
2023-02-11T15:24:06.990Z,8.70
2023-02-11T15:26:35.377Z,8.70
2023-02-11T15:29:04.833Z,8.70
2023-02-11T15:31:35.076Z,8.70
2023-02-11T15:34:09.470Z,8.70
2023-02-11T15:36:39.276Z,8.70
2023-02-11T15:39:34.241Z,8.70
2023-02-11T15:42:26.743Z,8.70
2023-02-11T15:45:25.854Z,8.70
2023-02-11T15:47:58.494Z,8.70
2023-02-11T15:50:30.087Z,8.70
2023-02-11T15:53:03.771Z,8.70
2023-02-11T15:55:33.989Z,8.70
2023-02-11T15:58:03.125Z,8.70
2023-02-11T16:00:38.236Z,8.70
2023-02-11T16:03:06.545Z,8.70
2023-02-11T16:05:37.479Z,8.70
2023-02-11T16:08:24.263Z,8.80
2023-02-11T16:10:59.250Z,8.80
2023-02-11T16:13:30.534Z,8.80
2023-02-11T16:16:04.450Z,8.80
2023-02-11T16:18:40.392Z,8.80
2023-02-11T16:21:17.594Z,8.80
2023-02-11T16:23:54.519Z,8.80
2023-02-11T16:26:31.011Z,8.80
2023-02-11T16:29:10.992Z,8.80
2023-02-11T16:31:43.161Z,8.80
2023-02-11T16:34:21.150Z,8.80
2023-02-11T16:36:51.512Z,8.80
2023-02-11T16:39:22.427Z,8.70
2023-02-11T16:41:52.659Z,8.70
2023-02-11T16:44:20.924Z,8.70
2023-02-11T16:46:49.286Z,8.70
2023-02-11T16:49:23.516Z,8.70
2023-02-11T16:51:57.232Z,8.70
2023-02-11T16:54:25.558Z,8.70
2023-02-11T16:56:55.346Z,8.70
2023-02-11T16:59:23.666Z,8.70
2023-02-11T17:01:54.605Z,8.70
2023-02-11T17:04:28.270Z,8.70
2023-02-11T17:06:58.349Z,8.70
2023-02-11T17:09:31.130Z,8.70
2023-02-11T17:12:00.787Z,8.70
2023-02-11T17:14:29.180Z,8.70
2023-02-11T17:16:58.456Z,8.70
2023-02-11T17:19:26.585Z,8.70
2023-02-11T17:21:54.999Z,8.70
2023-02-11T17:24:24.156Z,8.70
2023-02-11T17:26:52.570Z,8.70
2023-02-11T17:29:25.822Z,8.70
2023-02-11T17:31:54.790Z,8.70
2023-02-11T17:34:24.104Z,8.70
2023-02-11T17:36:52.721Z,8.70
2023-02-11T17:39:21.271Z,8.70
2023-02-11T17:41:49.686Z,8.70
2023-02-11T17:44:18.365Z,8.70
2023-02-11T17:46:47.809Z,8.70
2023-02-11T17:49:16.306Z,8.70
2023-02-11T17:51:44.856Z,8.70
2023-02-11T17:54:15.889Z,8.60
2023-02-11T17:56:44.372Z,8.60
2023-02-11T17:59:14.630Z,8.60
2023-02-11T18:01:44.023Z,8.60
2023-02-11T18:04:16.787Z,8.60
2023-02-11T18:06:45.597Z,8.60
2023-02-11T18:09:14.129Z,8.60
2023-02-11T18:11:42.567Z,8.60
2023-02-11T18:14:12.756Z,8.60
2023-02-11T18:16:43.504Z,8.60
2023-02-11T18:19:13.918Z,8.60
2023-02-11T18:21:42.439Z,8.50
2023-02-11T18:24:10.800Z,8.50
2023-02-11T18:26:38.978Z,8.50
2023-02-11T18:29:07.347Z,8.50
2023-02-11T18:31:36.764Z,8.50
2023-02-11T18:34:07.389Z,8.50
2023-02-11T18:36:38.034Z,8.50
2023-02-11T18:39:06.963Z,8.50
2023-02-11T18:41:35.635Z,8.50
2023-02-11T18:44:04.891Z,8.50
2023-02-11T18:46:33.631Z,8.60
2023-02-11T18:49:02.497Z,8.60
2023-02-11T18:51:32.813Z,8.60
2023-02-11T18:54:02.592Z,8.60
2023-02-11T18:56:31.122Z,8.60
2023-02-11T18:59:01.440Z,8.60
2023-02-11T19:01:31.623Z,8.60
2023-02-11T19:04:02.880Z,8.60
2023-02-11T19:06:35.308Z,8.60
2023-02-11T19:09:09.771Z,8.60
2023-02-11T19:11:50.465Z,8.60
2023-02-11T19:14:23.100Z,8.60
2023-02-11T19:16:54.469Z,8.60
2023-02-11T19:19:24.496Z,8.50
2023-02-11T19:21:53.441Z,8.50
2023-02-11T19:24:24.799Z,8.50
2023-02-11T19:26:57.727Z,8.50
2023-02-11T19:29:26.688Z,8.50
2023-02-11T19:31:56.080Z,8.50
2023-02-11T19:34:24.583Z,8.50
2023-02-11T19:36:54.175Z,8.50
2023-02-11T19:39:24.870Z,8.50
2023-02-11T19:41:53.522Z,8.50
2023-02-11T19:44:22.009Z,8.50
2023-02-11T19:46:52.785Z,8.50
2023-02-11T19:49:25.787Z,8.50
2023-02-11T19:51:58.112Z,8.50
2023-02-11T19:54:29.195Z,8.50
2023-02-11T19:56:59.115Z,8.50
2023-02-11T19:59:27.570Z,8.50
2023-02-11T20:01:56.057Z,8.50
2023-02-11T20:04:25.224Z,8.40
2023-02-11T20:06:53.651Z,8.40
2023-02-11T20:09:22.708Z,8.40
2023-02-11T20:11:52.488Z,8.40
2023-02-11T20:14:21.100Z,8.40
2023-02-11T20:16:50.318Z,8.40
2023-02-11T20:19:21.601Z,8.40
2023-02-11T20:21:55.780Z,8.40
2023-02-11T20:24:26.002Z,8.40
2023-02-11T20:26:56.498Z,8.40
2023-02-11T20:29:26.470Z,8.40
2023-02-11T20:31:55.698Z,8.40
2023-02-11T20:34:25.050Z,8.40
2023-02-11T20:36:54.113Z,8.40
2023-02-11T20:39:25.068Z,8.40
2023-02-11T20:41:56.503Z,8.30
2023-02-11T20:44:25.484Z,8.30
2023-02-11T20:46:54.827Z,8.30
2023-02-11T20:49:25.397Z,8.30
2023-02-11T20:51:54.480Z,8.30
2023-02-11T20:54:24.220Z,8.30
2023-02-11T20:56:53.868Z,8.30
2023-02-11T20:59:24.536Z,8.40
2023-02-11T21:01:56.422Z,8.30
2023-02-11T21:04:27.867Z,8.30
2023-02-11T21:06:59.751Z,8.30
2023-02-11T21:09:33.483Z,8.30
2023-02-11T21:12:03.421Z,8.30
2023-02-11T21:14:33.951Z,8.30
2023-02-11T21:17:02.317Z,8.30
2023-02-11T21:19:30.415Z,8.30
2023-02-11T21:22:00.548Z,8.30
2023-02-11T21:24:30.722Z,8.30
2023-02-11T21:26:58.855Z,8.30
2023-02-11T21:29:27.020Z,8.30
2023-02-11T21:31:56.694Z,8.30
2023-02-11T21:34:24.782Z,8.20
2023-02-11T21:36:52.916Z,8.20
2023-02-11T21:39:21.245Z,8.20
2023-02-11T21:41:49.663Z,8.20
2023-02-11T21:44:17.816Z,8.20
2023-02-11T21:46:46.102Z,8.20
2023-02-11T21:49:15.590Z,8.20
2023-02-11T21:51:43.793Z,8.30
2023-02-11T21:54:12.869Z,8.20
2023-02-11T21:56:41.015Z,8.20
2023-02-11T21:59:12.314Z,8.20
2023-02-11T22:01:40.936Z,8.20
2023-02-11T22:04:10.309Z,8.30
2023-02-11T22:06:40.003Z,8.20
2023-02-11T22:09:10.763Z,8.30
2023-02-11T22:11:39.010Z,8.20
2023-02-11T22:14:07.243Z,8.20
2023-02-11T22:16:35.653Z,8.20
2023-02-11T22:19:03.756Z,8.20
2023-02-11T22:21:31.921Z,8.20
2023-02-11T22:24:01.385Z,8.20
2023-02-11T22:26:30.084Z,8.20
2023-02-11T22:28:58.507Z,8.20
2023-02-11T22:31:29.829Z,8.20
2023-02-11T22:33:59.201Z,8.30
2023-02-11T22:36:30.380Z,8.30
2023-02-11T22:39:03.251Z,8.30
2023-02-11T22:41:31.889Z,8.30
2023-02-11T22:44:00.061Z,8.20
2023-02-11T22:46:28.347Z,8.30
2023-02-11T22:48:56.679Z,8.30
2023-02-11T22:51:27.896Z,8.30
2023-02-11T22:53:58.596Z,8.30
2023-02-11T22:56:29.678Z,8.30
2023-02-11T22:58:59.209Z,8.30
2023-02-11T23:01:27.948Z,8.30
2023-02-11T23:03:56.424Z,8.30
2023-02-11T23:06:24.505Z,8.30
2023-02-11T23:08:53.041Z,8.30
2023-02-11T23:11:24.101Z,8.30
2023-02-11T23:13:54.562Z,8.30
2023-02-11T23:16:26.415Z,8.30
2023-02-11T23:18:55.428Z,8.30
2023-02-11T23:21:26.537Z,8.30
2023-02-11T23:23:57.299Z,8.30
2023-02-11T23:26:26.440Z,8.30
2023-02-11T23:28:56.589Z,8.30
2023-02-11T23:31:28.973Z,8.30
2023-02-11T23:33:57.819Z,8.30
2023-02-11T23:36:26.061Z,8.30
2023-02-11T23:38:54.172Z,8.30
2023-02-11T23:41:23.050Z,8.30
2023-02-11T23:43:56.055Z,8.30
2023-02-11T23:46:26.228Z,8.30
2023-02-11T23:48:54.635Z,8.30
2023-02-11T23:51:24.006Z,8.30
2023-02-11T23:53:55.893Z,8.30
2023-02-11T23:56:28.721Z,8.30
2023-02-11T23:58:59.825Z,8.30
